Terminal Aerodrome Forecast
Issued by NWS

Home | Current Version | Previous Version | Text Only | Print | Product List | Glossary On
Versions: 1 2 3 4 5 6 7 8 9 10 11 12
080
FTUS43 KDTX 221120
TAFDET
TAF
KDET 221120Z 2212/2312 16005KT P6SM BKN200
     FM221600 17013KT P6SM BKN150
     FM222300 16010KT P6SM OVC120
     FM230400 18008KT P6SM OVC050=

USA.gov is the U.S. government's official web portal to all federal, state and local government web resources and services.